createdAt,value
2023-05-09T00:00:46.946Z,8.65
2023-05-09T00:03:13.877Z,8.61
2023-05-09T00:05:41.169Z,8.61
2023-05-09T00:08:07.903Z,8.56
2023-05-09T00:10:34.620Z,8.51
2023-05-09T00:13:01.907Z,8.47
2023-05-09T00:15:28.804Z,8.47
2023-05-09T00:17:55.364Z,8.50
2023-05-09T00:20:22.026Z,8.48
2023-05-09T00:22:48.540Z,8.40
2023-05-09T00:25:15.216Z,8.41
2023-05-09T00:27:42.168Z,8.40
2023-05-09T00:30:08.893Z,8.38
2023-05-09T00:32:36.345Z,8.36
2023-05-09T00:35:03.256Z,8.28
2023-05-09T00:37:32.987Z,8.31
2023-05-09T00:39:59.777Z,8.37
2023-05-09T00:42:26.368Z,8.36
2023-05-09T00:44:52.926Z,8.33
2023-05-09T00:47:23.522Z,8.40
2023-05-09T00:49:50.248Z,8.38
2023-05-09T00:52:20.862Z,8.41
2023-05-09T00:54:47.392Z,8.37
2023-05-09T00:57:13.894Z,8.44
2023-05-09T00:59:41.486Z,8.37
2023-05-09T01:02:08.442Z,8.36
2023-05-09T01:04:35.121Z,8.35
2023-05-09T01:07:24.004Z,8.38
2023-05-09T01:10:21.289Z,8.41
2023-05-09T01:13:09.481Z,8.47
2023-05-09T01:15:39.066Z,8.48
2023-05-09T01:18:17.035Z,8.52
2023-05-09T01:20:57.187Z,8.57
2023-05-09T01:23:52.199Z,8.59
2023-05-09T01:26:45.991Z,8.62
2023-05-09T01:29:34.848Z,8.67
2023-05-09T01:32:04.313Z,8.70
2023-05-09T01:34:30.900Z,8.71
2023-05-09T01:36:58.803Z,8.70
2023-05-09T01:39:25.386Z,8.67
2023-05-09T01:41:53.267Z,8.64
2023-05-09T01:44:19.888Z,8.57
2023-05-09T01:46:46.422Z,8.60
2023-05-09T01:49:13.721Z,8.59
2023-05-09T01:51:43.698Z,8.64
2023-05-09T01:54:11.732Z,8.69
2023-05-09T01:56:38.244Z,8.67
2023-05-09T01:59:06.017Z,8.67
2023-05-09T02:01:33.117Z,8.69
2023-05-09T02:04:00.956Z,8.65
2023-05-09T02:06:29.306Z,8.63
2023-05-09T02:08:57.135Z,8.63
2023-05-09T02:11:25.659Z,8.61
2023-05-09T02:13:52.272Z,8.56
2023-05-09T02:16:20.622Z,8.49
2023-05-09T02:18:48.062Z,8.50
2023-05-09T02:21:14.729Z,8.52
2023-05-09T02:23:41.260Z,8.50
2023-05-09T02:26:08.012Z,8.49
2023-05-09T02:28:35.142Z,8.50
2023-05-09T02:31:01.666Z,8.53
2023-05-09T02:33:28.879Z,8.50
2023-05-09T02:35:55.368Z,8.49
2023-05-09T02:38:23.488Z,8.49
2023-05-09T02:40:52.283Z,8.53
2023-05-09T02:43:19.325Z,8.55
2023-05-09T02:45:45.945Z,8.61
2023-05-09T02:48:12.895Z,8.62
2023-05-09T02:50:42.288Z,8.65
2023-05-09T02:53:09.187Z,8.63
2023-05-09T02:55:35.785Z,8.64
2023-05-09T02:58:12.687Z,8.62
2023-05-09T03:00:41.496Z,8.60
2023-05-09T03:03:09.422Z,8.53
2023-05-09T03:05:36.256Z,8.48
2023-05-09T03:08:02.949Z,8.46
2023-05-09T03:10:30.194Z,8.39
2023-05-09T03:12:56.687Z,8.32
2023-05-09T03:15:23.448Z,8.33
2023-05-09T03:17:50.271Z,8.34
2023-05-09T03:20:17.243Z,8.32
2023-05-09T03:22:43.831Z,8.35
2023-05-09T03:25:11.349Z,8.41
2023-05-09T03:27:38.824Z,8.32
2023-05-09T03:30:08.708Z,8.26
2023-05-09T03:32:36.757Z,8.26
2023-05-09T03:35:03.574Z,8.29
2023-05-09T03:37:30.836Z,8.31
2023-05-09T03:39:57.339Z,8.35
2023-05-09T03:42:24.773Z,8.24
2023-05-09T03:44:52.964Z,8.20
2023-05-09T03:47:20.841Z,8.22
2023-05-09T03:49:47.355Z,8.33
2023-05-09T03:52:15.569Z,8.33
2023-05-09T03:54:43.392Z,8.41
2023-05-09T03:57:10.018Z,8.36
2023-05-09T03:59:38.176Z,8.42
2023-05-09T04:02:05.361Z,8.49
2023-05-09T04:04:32.314Z,8.46
2023-05-09T04:06:59.137Z,8.45
2023-05-09T04:09:27.563Z,8.56
2023-05-09T04:11:54.575Z,8.59
2023-05-09T04:14:21.178Z,8.67
2023-05-09T04:16:47.846Z,8.76
2023-05-09T04:22:09.838Z,8.51
2023-05-09T04:24:36.778Z,8.95
2023-05-09T04:27:03.572Z,9.12
2023-05-09T04:29:30.779Z,9.22
2023-05-09T04:31:58.388Z,9.25
2023-05-09T04:34:29.811Z,9.32
2023-05-09T04:36:58.702Z,9.41
2023-05-09T04:39:25.667Z,9.38
2023-05-09T04:41:58.963Z,9.46
2023-05-09T04:44:25.938Z,9.49
2023-05-09T04:46:55.237Z,9.59
2023-05-09T04:49:22.052Z,9.55
2023-05-09T04:51:48.769Z,9.59
2023-05-09T04:54:15.607Z,9.47
2023-05-09T04:56:43.102Z,9.24
2023-05-09T04:59:10.581Z,9.37
2023-05-09T05:01:37.552Z,9.48
2023-05-09T05:04:05.382Z,9.35
2023-05-09T05:06:32.990Z,9.26
2023-05-09T05:09:00.013Z,9.54
2023-05-09T05:11:26.892Z,9.68
2023-05-09T05:13:53.732Z,9.90
2023-05-09T05:16:21.511Z,9.96
2023-05-09T05:18:48.491Z,10.10
2023-05-09T05:21:16.471Z,10.08
2023-05-09T05:23:43.432Z,9.98
2023-05-09T05:26:11.575Z,10.02
2023-05-09T05:28:38.716Z,10.15
2023-05-09T05:31:06.888Z,10.16
2023-05-09T05:33:33.794Z,10.07
2023-05-09T05:36:01.232Z,9.97
2023-05-09T05:38:28.127Z,10.14
2023-05-09T05:40:55.934Z,10.23
2023-05-09T05:43:22.812Z,10.39
2023-05-09T05:45:49.644Z,10.27
2023-05-09T05:48:17.595Z,10.23
2023-05-09T05:50:45.909Z,10.61
2023-05-09T05:53:13.657Z,10.98
2023-05-09T05:55:40.704Z,11.29
2023-05-09T05:58:07.497Z,11.53
2023-05-09T06:00:34.928Z,11.67
2023-05-09T06:03:02.824Z,11.54
2023-05-09T06:05:44.202Z,11.05
2023-05-09T06:08:14.270Z,10.95
2023-05-09T06:10:41.791Z,10.88
2023-05-09T06:13:08.671Z,10.85
2023-05-09T06:15:35.958Z,11.11
2023-05-09T06:18:02.720Z,11.01
2023-05-09T06:20:29.498Z,11.07
2023-05-09T06:22:56.244Z,11.18
2023-05-09T06:25:22.981Z,11.48
2023-05-09T06:27:50.826Z,11.91
2023-05-09T06:30:26.217Z,12.17
2023-05-09T06:32:54.885Z,12.24
2023-05-09T06:35:21.963Z,12.38
2023-05-09T06:37:49.264Z,12.69
2023-05-09T06:40:17.106Z,13.13
2023-05-09T06:42:44.976Z,13.38
2023-05-09T06:45:12.067Z,13.38
2023-05-09T06:47:38.965Z,13.08
2023-05-09T06:50:06.882Z,12.81
2023-05-09T06:52:33.646Z,12.69
2023-05-09T06:55:00.373Z,12.77
2023-05-09T06:57:27.185Z,12.79
2023-05-09T06:59:54.930Z,12.92
2023-05-09T07:02:21.659Z,12.89
2023-05-09T07:04:49.072Z,12.88
2023-05-09T07:07:16.396Z,12.49
2023-05-09T07:09:44.266Z,12.54
2023-05-09T07:12:10.993Z,12.72
2023-05-09T07:14:37.692Z,13.01
2023-05-09T07:17:18.038Z,13.12
2023-05-09T07:19:45.538Z,12.90
2023-05-09T07:22:13.612Z,12.79
2023-05-09T07:24:40.482Z,12.70
2023-05-09T07:27:07.260Z,12.96
2023-05-09T07:29:35.057Z,12.88
2023-05-09T07:32:01.795Z,12.68
2023-05-09T07:34:28.687Z,12.77
2023-05-09T07:36:55.673Z,12.85
2023-05-09T07:39:23.381Z,12.86
2023-05-09T07:41:50.562Z,12.83
2023-05-09T07:44:17.305Z,12.73
2023-05-09T07:46:44.059Z,13.10
2023-05-09T07:49:10.806Z,12.68
2023-05-09T07:51:37.607Z,12.82
2023-05-09T07:54:04.334Z,12.60
2023-05-09T07:56:31.089Z,12.57
2023-05-09T07:58:57.940Z,12.67
2023-05-09T08:01:24.714Z,12.67
2023-05-09T08:03:52.254Z,12.70
2023-05-09T08:06:19.058Z,12.80
2023-05-09T08:08:45.831Z,12.76
2023-05-09T08:11:12.558Z,13.12
2023-05-09T08:13:39.383Z,13.10
2023-05-09T08:16:06.745Z,13.47
2023-05-09T08:18:33.601Z,13.51
2023-05-09T08:21:01.073Z,13.72
2023-05-09T08:23:28.140Z,13.74
2023-05-09T08:25:54.906Z,13.54
2023-05-09T08:28:24.397Z,13.36
2023-05-09T08:30:51.774Z,13.78
2023-05-09T08:33:19.656Z,13.93
2023-05-09T08:35:51.021Z,13.85
2023-05-09T08:38:17.818Z,13.76
2023-05-09T08:40:44.534Z,13.86
2023-05-09T08:43:12.063Z,13.80
2023-05-09T08:45:52.516Z,13.86
2023-05-09T08:48:19.313Z,13.77
2023-05-09T08:50:46.043Z,14.04
2023-05-09T08:53:13.329Z,14.26
2023-05-09T08:55:42.167Z,14.64
2023-05-09T08:58:13.408Z,14.70
2023-05-09T09:00:41.334Z,14.69
2023-05-09T09:03:08.141Z,14.99
2023-05-09T09:05:41.903Z,15.16
2023-05-09T09:08:10.163Z,15.57
2023-05-09T09:10:37.004Z,15.95
2023-05-09T09:13:05.090Z,16.17
2023-05-09T09:15:37.071Z,16.20
2023-05-09T09:18:09.358Z,16.00
2023-05-09T09:20:37.846Z,15.55
2023-05-09T09:23:05.701Z,15.61
2023-05-09T09:25:32.401Z,15.58
2023-05-09T09:27:59.366Z,15.49
2023-05-09T09:30:26.711Z,15.53
2023-05-09T09:32:53.516Z,15.46
2023-05-09T09:35:20.602Z,15.39
2023-05-09T09:37:47.660Z,15.43
2023-05-09T09:40:14.687Z,15.37
2023-05-09T09:42:45.750Z,15.28
2023-05-09T09:45:14.023Z,15.11
2023-05-09T09:47:41.195Z,14.98
2023-05-09T09:50:18.645Z,15.15
2023-05-09T09:52:53.130Z,14.73
2023-05-09T09:55:20.600Z,14.45
2023-05-09T09:57:48.733Z,14.52
2023-05-09T10:00:17.165Z,14.95
2023-05-09T10:02:52.156Z,15.24
2023-05-09T10:05:29.261Z,15.48
2023-05-09T10:08:00.377Z,15.66
2023-05-09T10:10:28.309Z,15.79
2023-05-09T10:13:02.612Z,15.45
2023-05-09T10:15:41.498Z,15.00
2023-05-09T10:18:20.233Z,15.14
2023-05-09T10:20:47.240Z,15.50
2023-05-09T10:23:14.210Z,15.65
2023-05-09T10:25:48.471Z,15.82
2023-05-09T10:28:17.904Z,15.91
2023-05-09T10:31:00.506Z,15.59
2023-05-09T10:33:31.658Z,15.60
2023-05-09T10:35:59.471Z,15.62
2023-05-09T10:38:26.229Z,15.01
2023-05-09T10:40:53.449Z,14.70
2023-05-09T10:43:21.647Z,14.80
2023-05-09T10:45:48.765Z,15.03
2023-05-09T10:48:15.496Z,15.28
2023-05-09T10:50:42.820Z,15.31
2023-05-09T10:53:19.967Z,15.55
2023-05-09T10:55:47.153Z,15.93
2023-05-09T10:58:21.873Z,16.28
2023-05-09T11:00:49.342Z,16.53
2023-05-09T11:03:17.102Z,16.56
2023-05-09T11:05:44.007Z,16.28
2023-05-09T11:08:26.970Z,15.75
2023-05-09T11:10:58.072Z,15.70
2023-05-09T11:13:25.600Z,15.53
2023-05-09T11:16:01.710Z,15.21
2023-05-09T11:18:29.205Z,14.92
2023-05-09T11:20:56.089Z,15.10
2023-05-09T11:23:26.104Z,15.33
2023-05-09T11:25:53.989Z,15.59
2023-05-09T11:28:28.791Z,15.94
2023-05-09T11:31:12.367Z,16.06
2023-05-09T11:33:39.734Z,15.91
2023-05-09T11:36:25.487Z,16.05
2023-05-09T11:39:08.786Z,16.20
2023-05-09T11:41:43.438Z,16.23
2023-05-09T11:44:20.121Z,16.24
2023-05-09T11:46:48.092Z,16.29
2023-05-09T11:49:15.218Z,16.34
2023-05-09T11:51:42.668Z,16.22
2023-05-09T11:54:10.740Z,16.36
2023-05-09T11:56:39.696Z,16.48
2023-05-09T11:59:07.667Z,16.45
2023-05-09T12:01:34.435Z,16.45
2023-05-09T12:04:01.827Z,16.60
2023-05-09T12:06:30.089Z,16.41
2023-05-09T12:08:57.940Z,15.69
2023-05-09T12:11:24.777Z,15.15
2023-05-09T12:13:52.529Z,15.17
2023-05-09T12:16:20.191Z,15.05
2023-05-09T12:18:48.707Z,15.37
2023-05-09T12:21:16.102Z,15.72
2023-05-09T12:23:42.878Z,15.95
2023-05-09T12:26:09.932Z,16.12
2023-05-09T12:28:36.757Z,15.68
2023-05-09T12:31:04.299Z,15.51
2023-05-09T12:33:31.743Z,15.37
2023-05-09T12:36:10.325Z,15.18
2023-05-09T12:38:37.725Z,15.22
2023-05-09T12:41:12.955Z,15.10
2023-05-09T12:43:49.476Z,15.23
2023-05-09T12:46:20.294Z,15.32
2023-05-09T12:48:50.151Z,15.40
2023-05-09T12:51:20.969Z,15.25
2023-05-09T12:53:48.020Z,14.99
2023-05-09T12:56:19.055Z,14.87
2023-05-09T12:58:53.199Z,14.90
2023-05-09T13:01:23.266Z,14.85
2023-05-09T13:04:00.102Z,15.17
2023-05-09T13:06:27.861Z,15.67
2023-05-09T13:09:00.184Z,16.07
2023-05-09T13:11:27.276Z,15.65
2023-05-09T13:13:57.135Z,15.60
2023-05-09T13:16:24.052Z,15.95
2023-05-09T13:18:50.871Z,15.77
2023-05-09T13:21:17.585Z,15.56
2023-05-09T13:23:45.829Z,15.81
2023-05-09T13:26:12.941Z,15.53
2023-05-09T13:28:39.796Z,15.15
2023-05-09T13:31:07.018Z,15.08
2023-05-09T13:33:34.060Z,15.18
2023-05-09T13:36:01.077Z,15.49
2023-05-09T13:38:31.011Z,15.74
2023-05-09T13:40:58.393Z,15.78
2023-05-09T13:43:25.149Z,15.82
2023-05-09T13:45:51.916Z,15.86
2023-05-09T13:48:18.830Z,15.84
2023-05-09T13:50:46.813Z,15.81
2023-05-09T13:53:13.680Z,15.77
2023-05-09T13:55:40.471Z,15.49
2023-05-09T13:58:08.450Z,15.65
2023-05-09T14:00:35.653Z,15.89
2023-05-09T14:03:03.220Z,16.09
2023-05-09T14:05:33.295Z,16.20
2023-05-09T14:08:01.691Z,15.97
2023-05-09T14:10:28.855Z,16.08
2023-05-09T14:12:56.562Z,16.34
2023-05-09T14:15:23.428Z,16.91
2023-05-09T14:17:50.476Z,17.41
2023-05-09T14:20:17.503Z,17.52
2023-05-09T14:22:44.445Z,17.48
2023-05-09T14:25:11.207Z,17.58
2023-05-09T14:27:38.071Z,17.71
2023-05-09T14:30:05.174Z,17.37
2023-05-09T14:32:32.835Z,16.77
2023-05-09T14:34:59.789Z,16.34
2023-05-09T14:37:27.544Z,16.03
2023-05-09T14:39:54.242Z,15.74
2023-05-09T14:42:23.006Z,15.74
2023-05-09T14:44:50.342Z,15.66
2023-05-09T14:47:18.266Z,15.22
2023-05-09T14:49:45.191Z,15.15
2023-05-09T14:52:12.201Z,15.44
2023-05-09T14:54:39.028Z,15.49
2023-05-09T14:57:07.577Z,15.50
2023-05-09T14:59:37.098Z,15.58
2023-05-09T15:02:04.405Z,15.61
2023-05-09T15:04:31.648Z,15.65
2023-05-09T15:06:59.894Z,15.68
2023-05-09T15:09:27.089Z,15.62
2023-05-09T15:11:54.962Z,15.41
2023-05-09T15:14:22.092Z,15.36
2023-05-09T15:16:51.698Z,15.23
2023-05-09T15:19:19.151Z,15.13
2023-05-09T15:21:46.079Z,15.17
2023-05-09T15:24:12.955Z,15.00
2023-05-09T15:26:39.768Z,14.91
2023-05-09T15:29:07.272Z,14.78
2023-05-09T15:31:36.348Z,14.76
2023-05-09T15:34:03.651Z,14.36
2023-05-09T15:36:31.212Z,14.06
2023-05-09T15:38:58.073Z,13.86
2023-05-09T15:41:25.106Z,13.97
2023-05-09T15:43:52.363Z,13.76
2023-05-09T15:46:19.262Z,13.89
2023-05-09T15:48:46.295Z,13.90
2023-05-09T15:51:14.010Z,13.80
2023-05-09T15:53:40.980Z,13.68
2023-05-09T15:56:08.285Z,13.76
2023-05-09T15:58:35.376Z,13.72
2023-05-09T16:01:05.848Z,13.57
2023-05-09T16:03:32.822Z,13.52
2023-05-09T16:05:59.957Z,13.61
2023-05-09T16:08:26.818Z,13.66
2023-05-09T16:10:53.569Z,13.89
2023-05-09T16:13:20.376Z,13.84
2023-05-09T16:15:48.230Z,13.91
2023-05-09T16:18:15.224Z,13.71
2023-05-09T16:20:44.174Z,13.75
2023-05-09T16:23:11.619Z,13.89
2023-05-09T16:25:38.686Z,13.91
2023-05-09T16:28:07.390Z,14.09
2023-05-09T16:30:34.520Z,14.12
2023-05-09T16:33:01.773Z,14.04
2023-05-09T16:35:29.054Z,13.81
2023-05-09T16:39:52.110Z,13.45
2023-05-09T16:42:19.083Z,13.60
2023-05-09T16:44:45.966Z,13.08
2023-05-09T16:47:12.774Z,13.14
2023-05-09T16:49:39.571Z,13.07
2023-05-09T16:52:06.522Z,13.09
2023-05-09T16:54:33.371Z,13.00
2023-05-09T16:57:00.261Z,12.96
2023-05-09T16:59:27.265Z,13.02
2023-05-09T17:01:54.062Z,12.94
2023-05-09T17:04:20.989Z,13.02
2023-05-09T17:06:47.819Z,13.00
2023-05-09T17:09:14.574Z,12.90
2023-05-09T17:11:41.450Z,12.85
2023-05-09T17:14:09.554Z,12.71
2023-05-09T17:16:38.157Z,12.79
2023-05-09T17:19:05.344Z,12.79
2023-05-09T17:21:32.475Z,12.84
2023-05-09T17:23:59.399Z,12.97
2023-05-09T17:26:28.147Z,12.98
2023-05-09T17:28:55.124Z,12.80
2023-05-09T17:31:22.974Z,12.78
2023-05-09T17:33:50.193Z,12.79
2023-05-09T17:36:17.022Z,12.78
2023-05-09T17:38:44.172Z,12.69
2023-05-09T17:41:12.149Z,12.68
2023-05-09T17:43:40.162Z,12.55
2023-05-09T17:46:08.148Z,12.39
2023-05-09T17:48:35.025Z,12.23
2023-05-09T17:51:01.913Z,12.19
2023-05-09T17:53:28.804Z,12.06
2023-05-09T17:55:55.776Z,12.02
2023-05-09T17:58:23.984Z,11.95
2023-05-09T18:00:54.131Z,12.05
2023-05-09T18:03:20.995Z,12.02
2023-05-09T18:05:48.883Z,11.92
2023-05-09T18:08:16.705Z,12.00
2023-05-09T18:10:44.010Z,12.03
2023-05-09T18:13:10.977Z,11.97
2023-05-09T18:15:38.634Z,12.07
2023-05-09T18:18:06.959Z,11.99
2023-05-09T18:20:34.754Z,12.08
2023-05-09T18:23:01.575Z,12.13
2023-05-09T18:25:28.572Z,11.98
2023-05-09T18:27:56.594Z,11.90
2023-05-09T18:30:23.440Z,11.85
2023-05-09T18:32:50.323Z,11.69
2023-05-09T18:35:17.164Z,11.73
2023-05-09T18:37:44.015Z,11.69
2023-05-09T18:40:15.605Z,11.71
2023-05-09T18:42:42.890Z,11.77
2023-05-09T18:45:10.291Z,11.72
2023-05-09T18:47:38.083Z,11.73
2023-05-09T18:50:05.813Z,11.81
2023-05-09T18:52:32.838Z,11.70
2023-05-09T18:55:01.092Z,11.63
2023-05-09T18:57:31.962Z,11.57
2023-05-09T19:00:02.166Z,11.45
2023-05-09T19:02:30.740Z,11.28
2023-05-09T19:04:57.861Z,11.24
2023-05-09T19:07:24.770Z,11.23
2023-05-09T19:09:52.018Z,11.20
2023-05-09T19:12:19.133Z,11.21
2023-05-09T19:14:46.117Z,11.16
2023-05-09T19:17:13.099Z,11.16
2023-05-09T19:19:40.832Z,11.15
2023-05-09T19:22:07.724Z,11.13
2023-05-09T19:24:34.655Z,11.09
2023-05-09T19:27:01.681Z,11.08
2023-05-09T19:29:28.555Z,11.03
2023-05-09T19:31:56.114Z,11.03
2023-05-09T19:34:22.983Z,11.05
2023-05-09T19:36:49.980Z,11.04
2023-05-09T19:39:16.953Z,11.03
2023-05-09T19:41:43.795Z,11.08
2023-05-09T19:44:10.652Z,11.10
2023-05-09T19:46:43.044Z,11.08
2023-05-09T19:49:10.624Z,11.02
2023-05-09T19:51:37.522Z,11.01
2023-05-09T19:54:04.852Z,10.93
2023-05-09T19:56:31.698Z,10.85
2023-05-09T19:58:58.543Z,10.81
2023-05-09T20:01:26.345Z,10.77
2023-05-09T20:03:53.440Z,10.82
2023-05-09T20:06:26.821Z,10.87
2023-05-09T20:08:53.643Z,10.83
2023-05-09T20:11:21.723Z,10.81
2023-05-09T20:13:48.565Z,10.84
2023-05-09T20:16:15.492Z,10.82
2023-05-09T20:18:42.304Z,10.81
2023-05-09T20:21:10.479Z,10.77
2023-05-09T20:23:38.174Z,10.74
2023-05-09T20:26:05.593Z,10.70
2023-05-09T20:28:32.372Z,10.71
2023-05-09T20:30:59.320Z,10.70
2023-05-09T20:33:26.097Z,10.70
2023-05-09T20:35:52.906Z,10.68
2023-05-09T20:38:19.812Z,10.64
2023-05-09T20:40:47.281Z,10.63
2023-05-09T20:43:14.100Z,10.61
2023-05-09T20:45:41.109Z,10.60
2023-05-09T20:48:07.996Z,10.58
2023-05-09T20:50:34.847Z,10.56
2023-05-09T20:53:01.662Z,10.53
2023-05-09T20:55:28.471Z,10.52
2023-05-09T20:57:55.427Z,10.49
2023-05-09T21:00:22.255Z,10.48
2023-05-09T21:02:49.103Z,10.44
2023-05-09T21:05:15.992Z,10.40
2023-05-09T21:07:42.773Z,10.36
2023-05-09T21:10:10.513Z,10.30
2023-05-09T21:12:37.368Z,10.30
2023-05-09T21:15:04.677Z,10.26
2023-05-09T21:17:31.497Z,10.20
2023-05-09T21:19:58.333Z,10.25
2023-05-09T21:22:25.170Z,10.28
2023-05-09T21:24:51.959Z,10.26
2023-05-09T21:27:18.759Z,10.24
2023-05-09T21:29:49.217Z,10.16
2023-05-09T21:32:17.050Z,10.16
2023-05-09T21:34:43.889Z,10.17
2023-05-09T21:37:10.735Z,10.15
2023-05-09T21:39:37.548Z,10.19
2023-05-09T21:42:04.356Z,10.15
2023-05-09T21:44:31.245Z,10.13
2023-05-09T21:46:58.148Z,10.12
2023-05-09T21:49:28.283Z,10.12
2023-05-09T21:51:55.355Z,10.10
2023-05-09T21:54:23.449Z,10.10
2023-05-09T21:56:50.374Z,10.08
2023-05-09T21:59:20.804Z,10.06
2023-05-09T22:01:48.795Z,10.05
2023-05-09T22:04:15.800Z,10.05
2023-05-09T22:06:42.826Z,10.01
2023-05-09T22:09:10.498Z,9.86
2023-05-09T22:11:37.788Z,9.76
2023-05-09T22:14:04.679Z,9.69
2023-05-09T22:16:32.596Z,9.67
2023-05-09T22:18:59.381Z,9.65
2023-05-09T22:21:26.253Z,9.59
2023-05-09T22:23:53.023Z,9.56
2023-05-09T22:26:19.830Z,9.52
2023-05-09T22:28:46.699Z,9.52
2023-05-09T22:31:13.505Z,9.52
2023-05-09T22:33:40.635Z,9.50
2023-05-09T22:36:08.771Z,9.53
2023-05-09T22:38:35.571Z,9.48
2023-05-09T22:41:02.335Z,9.41
2023-05-09T22:43:36.819Z,9.40
2023-05-09T22:46:06.532Z,9.38
2023-05-09T22:48:33.499Z,9.30
2023-05-09T22:51:00.327Z,9.32
2023-05-09T22:53:28.375Z,9.29
2023-05-09T22:55:55.576Z,9.27
2023-05-09T22:58:22.781Z,9.20
2023-05-09T23:00:49.715Z,9.19
2023-05-09T23:03:17.645Z,9.20
2023-05-09T23:05:44.609Z,9.22
2023-05-09T23:08:11.449Z,9.23
2023-05-09T23:10:38.375Z,9.19
2023-05-09T23:13:05.357Z,9.17
2023-05-09T23:15:32.403Z,9.16
2023-05-09T23:17:59.449Z,9.18
2023-05-09T23:20:26.730Z,9.16
2023-05-09T23:22:53.644Z,9.14
2023-05-09T23:25:20.567Z,9.08
2023-05-09T23:27:47.444Z,9.09
2023-05-09T23:30:14.524Z,9.08
2023-05-09T23:32:41.692Z,9.12
2023-05-09T23:35:08.847Z,9.19
2023-05-09T23:37:35.800Z,9.18
2023-05-09T23:40:04.057Z,9.13
2023-05-09T23:42:31.009Z,9.13
2023-05-09T23:44:57.948Z,9.11
2023-05-09T23:47:24.881Z,9.14
2023-05-09T23:49:51.744Z,9.15
2023-05-09T23:52:18.591Z,9.18
2023-05-09T23:54:45.534Z,9.24
2023-05-09T23:57:12.383Z,9.31
2023-05-09T23:59:39.318Z,9.36
